sensor_id;sensor_type;location;lat;lon;timestamp;temperature;humidity
65582;DHT22;52231;40.090;18.348;2024-02-14T00:00:24;7.80;90.80
65582;DHT22;52231;40.090;18.348;2024-02-14T00:02:53;7.80;90.90
65582;DHT22;52231;40.090;18.348;2024-02-14T00:05:21;8.00;90.90
65582;DHT22;52231;40.090;18.348;2024-02-14T00:07:51;7.90;90.80
65582;DHT22;52231;40.090;18.348;2024-02-14T00:10:19;7.90;90.80
65582;DHT22;52231;40.090;18.348;2024-02-14T00:12:47;7.80;90.80
65582;DHT22;52231;40.090;18.348;2024-02-14T00:15:15;7.80;90.90
65582;DHT22;52231;40.090;18.348;2024-02-14T00:17:44;7.80;90.80
65582;DHT22;52231;40.090;18.348;2024-02-14T00:20:12;7.80;90.90
65582;DHT22;52231;40.090;18.348;2024-02-14T00:22:49;7.80;90.90
65582;DHT22;52231;40.090;18.348;2024-02-14T00:25:18;7.80;90.80
65582;DHT22;52231;40.090;18.348;2024-02-14T00:27:48;7.80;90.90
65582;DHT22;52231;40.090;18.348;2024-02-14T00:30:17;7.60;90.70
65582;DHT22;52231;40.090;18.348;2024-02-14T00:33:05;7.70;90.80
65582;DHT22;52231;40.090;18.348;2024-02-14T00:35:33;7.60;90.70
65582;DHT22;52231;40.090;18.348;2024-02-14T00:38:01;7.60;90.70
65582;DHT22;52231;40.090;18.348;2024-02-14T00:40:29;7.70;90.60
65582;DHT22;52231;40.090;18.348;2024-02-14T00:42:57;7.70;90.70
65582;DHT22;52231;40.090;18.348;2024-02-14T00:45:25;7.80;90.60
65582;DHT22;52231;40.090;18.348;2024-02-14T00:47:53;7.80;90.50
65582;DHT22;52231;40.090;18.348;2024-02-14T00:50:21;7.80;90.50
65582;DHT22;52231;40.090;18.348;2024-02-14T00:52:49;7.80;90.50
65582;DHT22;52231;40.090;18.348;2024-02-14T00:55:17;7.80;90.50
65582;DHT22;52231;40.090;18.348;2024-02-14T00:57:45;7.80;90.40
65582;DHT22;52231;40.090;18.348;2024-02-14T01:00:13;7.80;90.40
65582;DHT22;52231;40.090;18.348;2024-02-14T01:02:42;7.80;90.20
65582;DHT22;52231;40.090;18.348;2024-02-14T01:05:10;7.80;90.10
65582;DHT22;52231;40.090;18.348;2024-02-14T01:07:38;7.80;90.20
65582;DHT22;52231;40.090;18.348;2024-02-14T01:10:06;7.80;90.10
65582;DHT22;52231;40.090;18.348;2024-02-14T01:12:35;7.80;90.10
65582;DHT22;52231;40.090;18.348;2024-02-14T01:15:04;7.70;90.00
65582;DHT22;52231;40.090;18.348;2024-02-14T01:17:34;7.70;90.00
65582;DHT22;52231;40.090;18.348;2024-02-14T01:20:06;7.60;90.00
65582;DHT22;52231;40.090;18.348;2024-02-14T01:22:38;7.70;89.90
65582;DHT22;52231;40.090;18.348;2024-02-14T01:25:15;7.60;89.90
65582;DHT22;52231;40.090;18.348;2024-02-14T01:27:44;7.60;89.80
65582;DHT22;52231;40.090;18.348;2024-02-14T01:30:12;7.60;89.80
65582;DHT22;52231;40.090;18.348;2024-02-14T01:32:40;7.60;89.70
65582;DHT22;52231;40.090;18.348;2024-02-14T01:35:08;7.60;89.70
65582;DHT22;52231;40.090;18.348;2024-02-14T01:37:37;7.60;89.60
65582;DHT22;52231;40.090;18.348;2024-02-14T01:40:06;7.60;89.50
65582;DHT22;52231;40.090;18.348;2024-02-14T01:42:49;7.60;89.50
65582;DHT22;52231;40.090;18.348;2024-02-14T01:45:17;7.50;89.50
65582;DHT22;52231;40.090;18.348;2024-02-14T01:47:58;7.40;89.50
65582;DHT22;52231;40.090;18.348;2024-02-14T01:50:27;7.30;89.50
65582;DHT22;52231;40.090;18.348;2024-02-14T01:53:00;7.30;89.60
65582;DHT22;52231;40.090;18.348;2024-02-14T01:55:28;7.30;89.60
65582;DHT22;52231;40.090;18.348;2024-02-14T01:57:56;7.20;89.60
65582;DHT22;52231;40.090;18.348;2024-02-14T02:00:25;7.20;89.70
65582;DHT22;52231;40.090;18.348;2024-02-14T02:02:55;7.10;89.70
65582;DHT22;52231;40.090;18.348;2024-02-14T02:05:25;7.10;89.70
65582;DHT22;52231;40.090;18.348;2024-02-14T02:07:53;7.20;89.80
65582;DHT22;52231;40.090;18.348;2024-02-14T02:10:22;7.20;89.90
65582;DHT22;52231;40.090;18.348;2024-02-14T02:13:10;7.20;90.00
65582;DHT22;52231;40.090;18.348;2024-02-14T02:15:58;7.20;89.90
65582;DHT22;52231;40.090;18.348;2024-02-14T02:18:46;7.30;89.90
65582;DHT22;52231;40.090;18.348;2024-02-14T02:21:35;7.30;90.00
65582;DHT22;52231;40.090;18.348;2024-02-14T02:24:03;7.30;89.80
65582;DHT22;52231;40.090;18.348;2024-02-14T02:26:31;7.30;89.80
65582;DHT22;52231;40.090;18.348;2024-02-14T02:29:20;7.30;89.70
65582;DHT22;52231;40.090;18.348;2024-02-14T02:31:49;7.30;89.80
65582;DHT22;52231;40.090;18.348;2024-02-14T02:34:17;7.40;89.80
65582;DHT22;52231;40.090;18.348;2024-02-14T02:36:45;7.30;89.70
65582;DHT22;52231;40.090;18.348;2024-02-14T02:39:32;7.30;89.70
65582;DHT22;52231;40.090;18.348;2024-02-14T02:42:20;7.30;89.60
65582;DHT22;52231;40.090;18.348;2024-02-14T02:45:08;7.10;89.60
65582;DHT22;52231;40.090;18.348;2024-02-14T02:47:56;7.20;89.60
65582;DHT22;52231;40.090;18.348;2024-02-14T02:50:44;7.20;89.60
65582;DHT22;52231;40.090;18.348;2024-02-14T02:53:35;7.00;89.60
65582;DHT22;52231;40.090;18.348;2024-02-14T02:56:24;7.10;89.70
65582;DHT22;52231;40.090;18.348;2024-02-14T02:58:55;7.10;89.70
65582;DHT22;52231;40.090;18.348;2024-02-14T03:01:23;6.90;89.80
65582;DHT22;52231;40.090;18.348;2024-02-14T03:04:12;7.20;89.90
65582;DHT22;52231;40.090;18.348;2024-02-14T03:07:02;7.00;89.80
65582;DHT22;52231;40.090;18.348;2024-02-14T03:09:54;7.00;89.90
65582;DHT22;52231;40.090;18.348;2024-02-14T03:12:42;7.00;89.90
65582;DHT22;52231;40.090;18.348;2024-02-14T03:15:30;7.10;90.00
65582;DHT22;52231;40.090;18.348;2024-02-14T03:17:58;7.10;89.90
65582;DHT22;52231;40.090;18.348;2024-02-14T03:20:26;7.10;89.80
65582;DHT22;52231;40.090;18.348;2024-02-14T03:22:57;6.90;89.80
65582;DHT22;52231;40.090;18.348;2024-02-14T03:25:25;6.90;89.80
65582;DHT22;52231;40.090;18.348;2024-02-14T03:28:00;6.90;89.70
65582;DHT22;52231;40.090;18.348;2024-02-14T03:30:28;6.90;89.60
65582;DHT22;52231;40.090;18.348;2024-02-14T03:32:57;6.90;89.60
65582;DHT22;52231;40.090;18.348;2024-02-14T03:35:25;7.00;89.60
65582;DHT22;52231;40.090;18.348;2024-02-14T03:37:54;6.80;89.50
65582;DHT22;52231;40.090;18.348;2024-02-14T03:40:22;6.90;89.50
65582;DHT22;52231;40.090;18.348;2024-02-14T03:42:51;6.90;89.50
65582;DHT22;52231;40.090;18.348;2024-02-14T03:45:21;6.80;89.40
65582;DHT22;52231;40.090;18.348;2024-02-14T03:47:49;6.90;89.40
65582;DHT22;52231;40.090;18.348;2024-02-14T03:50:18;6.70;89.30
65582;DHT22;52231;40.090;18.348;2024-02-14T03:52:46;6.80;89.30
65582;DHT22;52231;40.090;18.348;2024-02-14T03:55:14;6.80;89.20
65582;DHT22;52231;40.090;18.348;2024-02-14T03:57:45;6.70;89.20
65582;DHT22;52231;40.090;18.348;2024-02-14T04:00:15;6.70;89.20
65582;DHT22;52231;40.090;18.348;2024-02-14T04:02:44;6.70;89.10
65582;DHT22;52231;40.090;18.348;2024-02-14T04:05:12;6.80;89.20
65582;DHT22;52231;40.090;18.348;2024-02-14T04:07:40;6.70;89.00
65582;DHT22;52231;40.090;18.348;2024-02-14T04:10:09;6.70;89.00
65582;DHT22;52231;40.090;18.348;2024-02-14T04:12:37;6.60;89.00
65582;DHT22;52231;40.090;18.348;2024-02-14T04:15:05;6.60;88.90
65582;DHT22;52231;40.090;18.348;2024-02-14T04:17:47;6.50;88.90
65582;DHT22;52231;40.090;18.348;2024-02-14T04:20:15;6.50;88.90
65582;DHT22;52231;40.090;18.348;2024-02-14T04:22:43;6.60;89.10
65582;DHT22;52231;40.090;18.348;2024-02-14T04:25:12;6.60;89.00
65582;DHT22;52231;40.090;18.348;2024-02-14T04:27:40;6.60;89.00
65582;DHT22;52231;40.090;18.348;2024-02-14T04:30:09;6.70;89.00
65582;DHT22;52231;40.090;18.348;2024-02-14T04:32:57;6.60;88.80
65582;DHT22;52231;40.090;18.348;2024-02-14T04:35:25;6.70;88.80
65582;DHT22;52231;40.090;18.348;2024-02-14T04:37:53;6.60;88.70
65582;DHT22;52231;40.090;18.348;2024-02-14T04:40:21;6.70;88.90
65582;DHT22;52231;40.090;18.348;2024-02-14T04:42:49;6.70;88.80
65582;DHT22;52231;40.090;18.348;2024-02-14T04:45:18;6.70;88.60
65582;DHT22;52231;40.090;18.348;2024-02-14T04:47:54;6.70;88.30
65582;DHT22;52231;40.090;18.348;2024-02-14T04:50:22;6.70;88.30
65582;DHT22;52231;40.090;18.348;2024-02-14T04:52:50;6.60;88.20
65582;DHT22;52231;40.090;18.348;2024-02-14T04:55:18;6.70;88.30
65582;DHT22;52231;40.090;18.348;2024-02-14T04:57:46;6.60;88.20
65582;DHT22;52231;40.090;18.348;2024-02-14T05:00:15;6.60;88.20
65582;DHT22;52231;40.090;18.348;2024-02-14T05:02:43;6.60;88.20
65582;DHT22;52231;40.090;18.348;2024-02-14T05:05:11;6.50;88.10
65582;DHT22;52231;40.090;18.348;2024-02-14T05:07:53;6.50;88.10
65582;DHT22;52231;40.090;18.348;2024-02-14T05:10:21;6.60;88.10
65582;DHT22;52231;40.090;18.348;2024-02-14T05:12:49;6.40;88.00
65582;DHT22;52231;40.090;18.348;2024-02-14T05:15:17;6.50;88.10
65582;DHT22;52231;40.090;18.348;2024-02-14T05:17:46;6.50;88.10
65582;DHT22;52231;40.090;18.348;2024-02-14T05:20:15;6.60;88.10
65582;DHT22;52231;40.090;18.348;2024-02-14T05:22:43;6.40;88.20
65582;DHT22;52231;40.090;18.348;2024-02-14T05:25:12;6.50;88.10
65582;DHT22;52231;40.090;18.348;2024-02-14T05:27:52;6.60;88.10
65582;DHT22;52231;40.090;18.348;2024-02-14T05:30:21;6.60;88.10
65582;DHT22;52231;40.090;18.348;2024-02-14T05:32:58;6.50;87.90
65582;DHT22;52231;40.090;18.348;2024-02-14T05:35:45;6.60;87.80
65582;DHT22;52231;40.090;18.348;2024-02-14T05:38:15;6.50;87.60
65582;DHT22;52231;40.090;18.348;2024-02-14T05:40:43;6.50;87.70
65582;DHT22;52231;40.090;18.348;2024-02-14T05:43:11;6.40;87.60
65582;DHT22;52231;40.090;18.348;2024-02-14T05:45:40;6.40;87.50
65582;DHT22;52231;40.090;18.348;2024-02-14T05:48:08;6.40;87.40
65582;DHT22;52231;40.090;18.348;2024-02-14T05:50:36;6.50;87.40
65582;DHT22;52231;40.090;18.348;2024-02-14T05:53:04;6.40;87.10
65582;DHT22;52231;40.090;18.348;2024-02-14T05:55:34;6.40;87.10
65582;DHT22;52231;40.090;18.348;2024-02-14T05:58:02;6.50;86.90
65582;DHT22;52231;40.090;18.348;2024-02-14T06:00:31;6.70;86.80
65582;DHT22;52231;40.090;18.348;2024-02-14T06:02:59;6.70;86.50
65582;DHT22;52231;40.090;18.348;2024-02-14T06:05:27;6.80;86.20
65582;DHT22;52231;40.090;18.348;2024-02-14T06:07:55;6.90;86.10
65582;DHT22;52231;40.090;18.348;2024-02-14T06:10:24;7.10;85.70
65582;DHT22;52231;40.090;18.348;2024-02-14T06:12:53;7.30;85.50
65582;DHT22;52231;40.090;18.348;2024-02-14T06:15:21;7.40;85.10
65582;DHT22;52231;40.090;18.348;2024-02-14T06:17:50;7.70;84.80
65582;DHT22;52231;40.090;18.348;2024-02-14T06:20:18;7.90;84.00
65582;DHT22;52231;40.090;18.348;2024-02-14T06:22:46;8.00;83.40
65582;DHT22;52231;40.090;18.348;2024-02-14T06:25:16;8.30;82.80
65582;DHT22;52231;40.090;18.348;2024-02-14T06:27:55;8.50;82.10
65582;DHT22;52231;40.090;18.348;2024-02-14T06:30:24;8.70;81.40
65582;DHT22;52231;40.090;18.348;2024-02-14T06:32:54;8.80;80.90
65582;DHT22;52231;40.090;18.348;2024-02-14T06:35:22;9.00;80.30
65582;DHT22;52231;40.090;18.348;2024-02-14T06:37:51;9.30;79.60
65582;DHT22;52231;40.090;18.348;2024-02-14T06:40:19;9.40;79.00
65582;DHT22;52231;40.090;18.348;2024-02-14T06:42:48;9.60;77.80
65582;DHT22;52231;40.090;18.348;2024-02-14T06:45:18;9.70;77.40
65582;DHT22;52231;40.090;18.348;2024-02-14T06:47:56;9.90;77.00
65582;DHT22;52231;40.090;18.348;2024-02-14T06:50:25;10.10;76.10
65582;DHT22;52231;40.090;18.348;2024-02-14T06:52:53;10.30;75.40
65582;DHT22;52231;40.090;18.348;2024-02-14T06:55:21;10.40;74.80
65582;DHT22;52231;40.090;18.348;2024-02-14T06:57:49;10.50;74.20
65582;DHT22;52231;40.090;18.348;2024-02-14T07:00:17;10.70;73.90
65582;DHT22;52231;40.090;18.348;2024-02-14T07:02:46;10.80;73.20
65582;DHT22;52231;40.090;18.348;2024-02-14T07:05:15;10.80;72.60
65582;DHT22;52231;40.090;18.348;2024-02-14T07:07:44;10.70;72.40
65582;DHT22;52231;40.090;18.348;2024-02-14T07:10:12;10.80;72.70
65582;DHT22;52231;40.090;18.348;2024-02-14T07:12:40;10.90;72.40
65582;DHT22;52231;40.090;18.348;2024-02-14T07:15:08;11.10;71.70
65582;DHT22;52231;40.090;18.348;2024-02-14T07:17:37;11.30;71.30
65582;DHT22;52231;40.090;18.348;2024-02-14T07:20:06;11.50;70.40
65582;DHT22;52231;40.090;18.348;2024-02-14T07:22:38;11.70;70.10
65582;DHT22;52231;40.090;18.348;2024-02-14T07:25:06;11.90;69.40
65582;DHT22;52231;40.090;18.348;2024-02-14T07:27:54;12.20;68.40
65582;DHT22;52231;40.090;18.348;2024-02-14T07:30:22;12.30;67.40
65582;DHT22;52231;40.090;18.348;2024-02-14T07:32:50;12.50;66.90
65582;DHT22;52231;40.090;18.348;2024-02-14T07:35:19;12.80;66.60
65582;DHT22;52231;40.090;18.348;2024-02-14T07:37:47;12.80;64.70
65582;DHT22;52231;40.090;18.348;2024-02-14T07:40:16;12.40;65.20
65582;DHT22;52231;40.090;18.348;2024-02-14T07:43:00;12.40;66.50
65582;DHT22;52231;40.090;18.348;2024-02-14T07:45:29;12.60;65.30
65582;DHT22;52231;40.090;18.348;2024-02-14T07:47:57;12.90;65.00
65582;DHT22;52231;40.090;18.348;2024-02-14T07:50:25;13.10;62.90
65582;DHT22;52231;40.090;18.348;2024-02-14T07:52:55;13.30;62.90
65582;DHT22;52231;40.090;18.348;2024-02-14T07:55:24;13.40;61.60
65582;DHT22;52231;40.090;18.348;2024-02-14T07:57:54;13.50;61.30
65582;DHT22;52231;40.090;18.348;2024-02-14T08:00:22;13.60;61.10
65582;DHT22;52231;40.090;18.348;2024-02-14T08:02:51;13.80;60.90
65582;DHT22;52231;40.090;18.348;2024-02-14T08:05:20;13.90;60.70
65582;DHT22;52231;40.090;18.348;2024-02-14T08:08:07;14.10;60.30
65582;DHT22;52231;40.090;18.348;2024-02-14T08:10:35;14.30;59.50
65582;DHT22;52231;40.090;18.348;2024-02-14T08:13:05;14.40;58.90
65582;DHT22;52231;40.090;18.348;2024-02-14T08:15:35;14.40;57.20
65582;DHT22;52231;40.090;18.348;2024-02-14T08:18:05;14.20;56.60
65582;DHT22;52231;40.090;18.348;2024-02-14T08:20:36;14.30;57.10
65582;DHT22;52231;40.090;18.348;2024-02-14T08:23:13;14.40;56.60
65582;DHT22;52231;40.090;18.348;2024-02-14T08:25:41;14.40;55.60
65582;DHT22;52231;40.090;18.348;2024-02-14T08:28:09;14.40;55.70
65582;DHT22;52231;40.090;18.348;2024-02-14T08:30:38;14.40;56.50
65582;DHT22;52231;40.090;18.348;2024-02-14T08:33:06;14.50;55.20
65582;DHT22;52231;40.090;18.348;2024-02-14T08:35:35;14.50;54.80
65582;DHT22;52231;40.090;18.348;2024-02-14T08:38:03;14.60;54.60
65582;DHT22;52231;40.090;18.348;2024-02-14T08:40:32;14.80;54.70
65582;DHT22;52231;40.090;18.348;2024-02-14T08:43:00;14.80;52.70
65582;DHT22;52231;40.090;18.348;2024-02-14T08:45:28;14.70;52.40
65582;DHT22;52231;40.090;18.348;2024-02-14T08:47:58;14.80;52.60
65582;DHT22;52231;40.090;18.348;2024-02-14T08:50:26;14.90;52.40
65582;DHT22;52231;40.090;18.348;2024-02-14T08:52:54;14.90;52.00
65582;DHT22;52231;40.090;18.348;2024-02-14T08:55:22;15.00;51.60
65582;DHT22;52231;40.090;18.348;2024-02-14T08:57:50;15.10;51.70
65582;DHT22;52231;40.090;18.348;2024-02-14T09:00:18;15.10;51.60
65582;DHT22;52231;40.090;18.348;2024-02-14T09:02:47;15.10;50.60
65582;DHT22;52231;40.090;18.348;2024-02-14T09:05:16;15.00;50.20
65582;DHT22;52231;40.090;18.348;2024-02-14T09:07:45;14.90;50.60
65582;DHT22;52231;40.090;18.348;2024-02-14T09:10:13;15.10;51.00
65582;DHT22;52231;40.090;18.348;2024-02-14T09:12:42;15.30;50.60
65582;DHT22;52231;40.090;18.348;2024-02-14T09:15:11;15.50;51.30
65582;DHT22;52231;40.090;18.348;2024-02-14T09:17:40;15.60;49.60
65582;DHT22;52231;40.090;18.348;2024-02-14T09:20:09;15.70;50.00
65582;DHT22;52231;40.090;18.348;2024-02-14T09:22:38;15.80;49.70
65582;DHT22;52231;40.090;18.348;2024-02-14T09:25:06;15.70;49.00
65582;DHT22;52231;40.090;18.348;2024-02-14T09:27:36;15.80;50.00
65582;DHT22;52231;40.090;18.348;2024-02-14T09:30:05;15.90;50.00
65582;DHT22;52231;40.090;18.348;2024-02-14T09:32:35;16.10;49.50
65582;DHT22;52231;40.090;18.348;2024-02-14T09:35:03;16.50;49.90
65582;DHT22;52231;40.090;18.348;2024-02-14T09:37:34;16.80;47.60
65582;DHT22;52231;40.090;18.348;2024-02-14T09:40:02;16.60;47.70
65582;DHT22;52231;40.090;18.348;2024-02-14T09:43:17;16.80;48.50
65582;DHT22;52231;40.090;18.348;2024-02-14T09:45:19;16.80;49.20
65582;DHT22;52231;40.090;18.348;2024-02-14T09:47:48;16.90;47.70
65582;DHT22;52231;40.090;18.348;2024-02-14T09:50:18;17.00;46.80
65582;DHT22;52231;40.090;18.348;2024-02-14T09:52:48;17.00;47.10
65582;DHT22;52231;40.090;18.348;2024-02-14T09:55:17;16.70;48.40
65582;DHT22;52231;40.090;18.348;2024-02-14T09:57:46;16.60;47.80
65582;DHT22;52231;40.090;18.348;2024-02-14T10:00:15;16.90;48.00
65582;DHT22;52231;40.090;18.348;2024-02-14T10:02:43;16.90;47.60
65582;DHT22;52231;40.090;18.348;2024-02-14T10:05:11;17.30;47.50
65582;DHT22;52231;40.090;18.348;2024-02-14T10:07:43;17.30;48.20
65582;DHT22;52231;40.090;18.348;2024-02-14T10:10:12;17.30;47.20
65582;DHT22;52231;40.090;18.348;2024-02-14T10:12:42;16.90;47.40
65582;DHT22;52231;40.090;18.348;2024-02-14T10:15:10;16.80;47.60
65582;DHT22;52231;40.090;18.348;2024-02-14T10:17:41;16.90;46.60
65582;DHT22;52231;40.090;18.348;2024-02-14T10:20:10;17.20;47.10
65582;DHT22;52231;40.090;18.348;2024-02-14T10:22:39;17.30;46.60
65582;DHT22;52231;40.090;18.348;2024-02-14T10:25:08;17.20;46.30
65582;DHT22;52231;40.090;18.348;2024-02-14T10:27:37;17.20;46.60
65582;DHT22;52231;40.090;18.348;2024-02-14T10:30:07;17.10;46.90
65582;DHT22;52231;40.090;18.348;2024-02-14T10:32:42;16.80;47.50
65582;DHT22;52231;40.090;18.348;2024-02-14T10:35:15;16.60;48.00
65582;DHT22;52231;40.090;18.348;2024-02-14T10:37:45;16.40;47.80
65582;DHT22;52231;40.090;18.348;2024-02-14T10:40:15;16.60;47.80
65582;DHT22;52231;40.090;18.348;2024-02-14T10:42:43;16.40;48.00
65582;DHT22;52231;40.090;18.348;2024-02-14T10:45:11;16.50;47.90
65582;DHT22;52231;40.090;18.348;2024-02-14T10:47:49;16.40;48.60
65582;DHT22;52231;40.090;18.348;2024-02-14T10:50:22;16.10;48.80
65582;DHT22;52231;40.090;18.348;2024-02-14T10:52:53;15.60;49.60
65582;DHT22;52231;40.090;18.348;2024-02-14T10:55:29;15.30;51.20
65582;DHT22;52231;40.090;18.348;2024-02-14T10:57:57;15.30;51.50
65582;DHT22;52231;40.090;18.348;2024-02-14T11:00:26;15.80;50.90
65582;DHT22;52231;40.090;18.348;2024-02-14T11:02:55;16.20;49.30
65582;DHT22;52231;40.090;18.348;2024-02-14T11:05:24;16.40;48.10
65582;DHT22;52231;40.090;18.348;2024-02-14T11:08:19;15.90;49.50
65582;DHT22;52231;40.090;18.348;2024-02-14T11:10:56;15.70;50.70
65582;DHT22;52231;40.090;18.348;2024-02-14T11:13:29;16.10;50.50
65582;DHT22;52231;40.090;18.348;2024-02-14T11:16:04;16.50;48.90
65582;DHT22;52231;40.090;18.348;2024-02-14T11:18:33;16.30;47.80
65582;DHT22;52231;40.090;18.348;2024-02-14T11:21:15;16.10;48.50
65582;DHT22;52231;40.090;18.348;2024-02-14T11:24:09;16.30;49.30
65582;DHT22;52231;40.090;18.348;2024-02-14T11:26:51;16.90;48.60
65582;DHT22;52231;40.090;18.348;2024-02-14T11:29:20;17.20;47.30
65582;DHT22;52231;40.090;18.348;2024-02-14T11:31:49;16.80;46.40
65582;DHT22;52231;40.090;18.348;2024-02-14T11:34:26;16.40;47.40
65582;DHT22;52231;40.090;18.348;2024-02-14T11:36:55;16.30;48.10
65582;DHT22;52231;40.090;18.348;2024-02-14T11:39:23;16.50;48.40
65582;DHT22;52231;40.090;18.348;2024-02-14T11:41:51;16.50;47.30
65582;DHT22;52231;40.090;18.348;2024-02-14T11:44:19;16.30;47.50
65582;DHT22;52231;40.090;18.348;2024-02-14T11:46:50;16.00;47.60
65582;DHT22;52231;40.090;18.348;2024-02-14T11:49:18;16.00;47.80
65582;DHT22;52231;40.090;18.348;2024-02-14T11:51:46;16.20;48.60
65582;DHT22;52231;40.090;18.348;2024-02-14T11:54:15;16.40;47.60
65582;DHT22;52231;40.090;18.348;2024-02-14T11:56:46;16.30;47.60
65582;DHT22;52231;40.090;18.348;2024-02-14T11:59:14;16.30;47.70
65582;DHT22;52231;40.090;18.348;2024-02-14T12:01:45;16.30;47.30
65582;DHT22;52231;40.090;18.348;2024-02-14T12:04:14;16.20;47.80
65582;DHT22;52231;40.090;18.348;2024-02-14T12:06:43;16.30;48.40
65582;DHT22;52231;40.090;18.348;2024-02-14T12:09:12;16.20;47.90
65582;DHT22;52231;40.090;18.348;2024-02-14T12:11:46;16.10;47.30
65582;DHT22;52231;40.090;18.348;2024-02-14T12:14:15;15.90;47.20
65582;DHT22;52231;40.090;18.348;2024-02-14T12:16:46;15.90;47.60
65582;DHT22;52231;40.090;18.348;2024-02-14T12:19:15;15.80;47.50
65582;DHT22;52231;40.090;18.348;2024-02-14T12:21:44;15.90;47.10
65582;DHT22;52231;40.090;18.348;2024-02-14T12:24:13;16.00;47.80
65582;DHT22;52231;40.090;18.348;2024-02-14T12:26:42;16.00;46.90
65582;DHT22;52231;40.090;18.348;2024-02-14T12:29:11;15.90;45.90
65582;DHT22;52231;40.090;18.348;2024-02-14T12:31:41;16.10;46.20
65582;DHT22;52231;40.090;18.348;2024-02-14T12:34:11;16.10;47.30
65582;DHT22;52231;40.090;18.348;2024-02-14T12:36:40;16.00;47.80
65582;DHT22;52231;40.090;18.348;2024-02-14T12:39:08;15.90;48.60
65582;DHT22;52231;40.090;18.348;2024-02-14T12:41:40;15.90;48.30
65582;DHT22;52231;40.090;18.348;2024-02-14T12:44:08;15.90;46.30
65582;DHT22;52231;40.090;18.348;2024-02-14T12:46:37;15.70;48.30
65582;DHT22;52231;40.090;18.348;2024-02-14T12:49:07;15.70;48.80
65582;DHT22;52231;40.090;18.348;2024-02-14T12:51:37;15.80;49.80
65582;DHT22;52231;40.090;18.348;2024-02-14T12:54:06;15.70;49.10
65582;DHT22;52231;40.090;18.348;2024-02-14T12:56:37;15.70;49.60
65582;DHT22;52231;40.090;18.348;2024-02-14T12:59:05;15.60;50.10
65582;DHT22;52231;40.090;18.348;2024-02-14T13:01:34;15.60;50.60
65582;DHT22;52231;40.090;18.348;2024-02-14T13:04:02;15.60;51.40
65582;DHT22;52231;40.090;18.348;2024-02-14T13:06:33;15.60;51.10
65582;DHT22;52231;40.090;18.348;2024-02-14T13:09:02;15.50;50.60
65582;DHT22;52231;40.090;18.348;2024-02-14T13:11:33;15.50;50.90
65582;DHT22;52231;40.090;18.348;2024-02-14T13:14:01;15.50;51.30
65582;DHT22;52231;40.090;18.348;2024-02-14T13:16:29;15.40;51.70
65582;DHT22;52231;40.090;18.348;2024-02-14T13:18:57;15.30;49.10
65582;DHT22;52231;40.090;18.348;2024-02-14T13:21:25;15.30;47.80
65582;DHT22;52231;40.090;18.348;2024-02-14T13:23:54;15.20;47.80
65582;DHT22;52231;40.090;18.348;2024-02-14T13:26:23;15.00;48.60
65582;DHT22;52231;40.090;18.348;2024-02-14T13:28:51;15.10;48.50
65582;DHT22;52231;40.090;18.348;2024-02-14T13:31:19;15.00;49.40
65582;DHT22;52231;40.090;18.348;2024-02-14T13:33:47;15.10;49.60
65582;DHT22;52231;40.090;18.348;2024-02-14T13:36:16;15.00;48.50
65582;DHT22;52231;40.090;18.348;2024-02-14T13:38:45;14.90;48.40
65582;DHT22;52231;40.090;18.348;2024-02-14T13:41:13;14.80;48.00
65582;DHT22;52231;40.090;18.348;2024-02-14T13:43:43;14.80;47.70
65582;DHT22;52231;40.090;18.348;2024-02-14T13:46:12;14.80;47.90
65582;DHT22;52231;40.090;18.348;2024-02-14T13:48:41;14.80;47.80
65582;DHT22;52231;40.090;18.348;2024-02-14T13:51:09;14.90;47.40
65582;DHT22;52231;40.090;18.348;2024-02-14T13:53:37;14.90;45.80
65582;DHT22;52231;40.090;18.348;2024-02-14T13:56:06;14.80;45.00
65582;DHT22;52231;40.090;18.348;2024-02-14T13:58:34;14.60;46.20
65582;DHT22;52231;40.090;18.348;2024-02-14T14:01:02;14.60;46.20
65582;DHT22;52231;40.090;18.348;2024-02-14T14:03:31;14.50;46.50
65582;DHT22;52231;40.090;18.348;2024-02-14T14:06:03;14.40;46.80
65582;DHT22;52231;40.090;18.348;2024-02-14T14:08:34;14.40;47.00
65582;DHT22;52231;40.090;18.348;2024-02-14T14:11:03;14.30;48.30
65582;DHT22;52231;40.090;18.348;2024-02-14T14:13:32;14.30;49.60
65582;DHT22;52231;40.090;18.348;2024-02-14T14:16:01;14.20;50.00
65582;DHT22;52231;40.090;18.348;2024-02-14T14:18:29;14.10;49.80
65582;DHT22;52231;40.090;18.348;2024-02-14T14:20:58;14.00;50.30
65582;DHT22;52231;40.090;18.348;2024-02-14T14:23:26;14.00;51.30
65582;DHT22;52231;40.090;18.348;2024-02-14T14:25:54;13.90;50.80
65582;DHT22;52231;40.090;18.348;2024-02-14T14:28:22;13.90;50.00
65582;DHT22;52231;40.090;18.348;2024-02-14T14:30:53;13.90;49.90
65582;DHT22;52231;40.090;18.348;2024-02-14T14:33:22;13.80;47.70
65582;DHT22;52231;40.090;18.348;2024-02-14T14:35:50;13.70;47.80
65582;DHT22;52231;40.090;18.348;2024-02-14T14:38:21;13.60;48.10
65582;DHT22;52231;40.090;18.348;2024-02-14T14:40:49;13.60;49.20
65582;DHT22;52231;40.090;18.348;2024-02-14T14:43:17;13.50;47.90
65582;DHT22;52231;40.090;18.348;2024-02-14T14:45:47;13.50;47.80
65582;DHT22;52231;40.090;18.348;2024-02-14T14:48:16;13.40;49.10
65582;DHT22;52231;40.090;18.348;2024-02-14T14:50:45;13.40;50.10
65582;DHT22;52231;40.090;18.348;2024-02-14T14:53:13;13.30;49.40
65582;DHT22;52231;40.090;18.348;2024-02-14T14:55:54;13.30;49.50
65582;DHT22;52231;40.090;18.348;2024-02-14T14:58:25;13.20;49.50
65582;DHT22;52231;40.090;18.348;2024-02-14T15:01:00;13.10;50.20
65582;DHT22;52231;40.090;18.348;2024-02-14T15:03:28;13.00;51.20
65582;DHT22;52231;40.090;18.348;2024-02-14T15:05:56;13.00;52.20
65582;DHT22;52231;40.090;18.348;2024-02-14T15:08:25;12.90;51.90
65582;DHT22;52231;40.090;18.348;2024-02-14T15:10:54;12.80;51.80
65582;DHT22;52231;40.090;18.348;2024-02-14T15:13:26;12.80;51.10
65582;DHT22;52231;40.090;18.348;2024-02-14T15:15:55;12.70;49.90
65582;DHT22;52231;40.090;18.348;2024-02-14T15:18:25;12.60;50.40
65582;DHT22;52231;40.090;18.348;2024-02-14T15:20:54;12.50;51.70
65582;DHT22;52231;40.090;18.348;2024-02-14T15:23:22;12.50;53.40
65582;DHT22;52231;40.090;18.348;2024-02-14T15:25:51;12.50;55.60
65582;DHT22;52231;40.090;18.348;2024-02-14T15:28:19;12.40;56.20
65582;DHT22;52231;40.090;18.348;2024-02-14T15:30:54;12.30;56.70
65582;DHT22;52231;40.090;18.348;2024-02-14T15:33:41;12.30;56.60
65582;DHT22;52231;40.090;18.348;2024-02-14T15:36:10;12.20;57.10
65582;DHT22;52231;40.090;18.348;2024-02-14T15:38:43;12.10;57.30
65582;DHT22;52231;40.090;18.348;2024-02-14T15:41:11;12.00;57.50
65582;DHT22;52231;40.090;18.348;2024-02-14T15:43:40;11.90;57.90